Time;durP1;ratioP1;P1;durP2;ratioP2;P2;SDS_P1;SDS_P2;PMS_P1;PMS_P2;Temp;Humidity;BMP_temperature;BMP_pressure;BME280_temperature;BME280_humidity;BME280_pressure;Samples;Min_cycle;Max_cycle;Signal;HPM_P1;HPM_P2
2022/10/09 00:01:04;;;;;;;2.53;1.80;;;7.00;99.90;;;;;;4993982;28;20404;-72
2022/10/09 00:03:30;;;;;;;2.90;2.10;;;7.00;99.90;;;;;;4993986;28;20181;-72
2022/10/09 00:05:55;;;;;;;3.60;1.90;;;7.00;99.90;;;;;;4993762;28;20498;-72
2022/10/09 00:08:21;;;;;;;2.67;2.30;;;6.90;99.90;;;;;;4993333;28;20203;-72
2022/10/09 00:10:47;;;;;;;4.03;2.23;;;6.90;99.90;;;;;;4992642;28;20169;-72
2022/10/09 00:13:13;;;;;;;5.80;2.73;;;6.90;99.90;;;;;;4992540;28;20510;-72
2022/10/09 00:15:41;;;;;;;4.33;2.20;;;6.80;99.90;;;;;;4991691;28;20491;-72
2022/10/09 00:18:08;;;;;;;2.10;1.80;;;6.80;99.90;;;;;;4992527;28;20263;-72
2022/10/09 00:20:38;;;;;;;5.03;2.13;;;6.80;99.90;;;;;;4992682;28;20431;-72
2022/10/09 00:23:04;;;;;;;3.13;2.00;;;6.80;99.90;;;;;;4992615;28;20412;-72
2022/10/09 00:25:31;;;;;;;4.80;2.23;;;6.80;99.90;;;;;;4992948;28;20901;-72
2022/10/09 00:27:57;;;;;;;4.40;2.50;;;6.80;99.90;;;;;;4993461;28;20840;-72
2022/10/09 00:30:23;;;;;;;6.33;2.10;;;6.70;99.90;;;;;;4992815;28;20411;-72
2022/10/09 00:32:48;;;;;;;3.10;2.07;;;6.70;99.90;;;;;;4993450;28;20769;-73
2022/10/09 00:35:14;;;;;;;3.77;2.20;;;6.70;99.90;;;;;;4993199;28;20192;-73
2022/10/09 00:37:39;;;;;;;5.80;3.10;;;6.70;99.90;;;;;;4993283;28;20197;-72
2022/10/09 00:40:06;;;;;;;4.70;2.27;;;6.70;99.90;;;;;;4993193;28;20675;-73
2022/10/09 00:42:31;;;;;;;4.53;2.30;;;6.70;99.90;;;;;;4993335;28;20157;-73
2022/10/09 00:45:01;;;;;;;8.50;2.77;;;6.60;99.90;;;;;;4991626;28;20431;-73
2022/10/09 00:47:41;;;;;;;3.20;2.50;;;6.60;99.90;;;;;;4993231;28;20204;-73
2022/10/09 00:50:15;;;;;;;2.70;2.33;;;6.60;99.90;;;;;;5001181;28;20466;-74
2022/10/09 00:52:42;;;;;;;3.60;2.57;;;6.50;99.90;;;;;;5004178;28;20408;-74
2022/10/09 00:55:09;;;;;;;5.67;2.83;;;6.50;99.90;;;;;;5001600;28;20466;-73
2022/10/09 00:57:38;;;;;;;10.80;3.60;;;6.50;99.90;;;;;;5000244;28;21021;-73
2022/10/09 01:00:07;;;;;;;6.30;2.63;;;6.50;99.90;;;;;;4991716;28;20822;-73
2022/10/09 01:02:32;;;;;;;2.77;2.53;;;6.40;99.90;;;;;;4993162;28;20405;-73
2022/10/09 01:04:58;;;;;;;3.70;2.60;;;6.40;99.90;;;;;;4992716;28;20898;-72
2022/10/09 01:07:30;;;;;;;3.20;2.70;;;6.40;99.90;;;;;;4993878;28;20219;-73
2022/10/09 01:10:17;;;;;;;4.40;2.70;;;6.40;99.90;;;;;;5001947;28;20771;-73
2022/10/09 01:12:49;;;;;;;4.27;2.90;;;6.40;99.90;;;;;;5003095;28;20419;-74
2022/10/09 01:15:32;;;;;;;3.13;2.50;;;6.40;99.90;;;;;;5002201;28;20495;-74
2022/10/09 01:18:22;;;;;;;3.07;2.33;;;6.40;99.90;;;;;;5002253;28;20432;-73
2022/10/09 01:20:55;;;;;;;2.30;2.10;;;6.40;99.90;;;;;;5001552;28;20449;-73
2022/10/09 01:23:55;;;;;;;5.27;2.23;;;6.40;99.90;;;;;;4995906;28;20408;-73
2022/10/09 01:26:50;;;;;;;5.77;2.70;;;6.30;99.90;;;;;;4991138;28;20412;-73
2022/10/09 01:29:19;;;;;;;2.80;2.27;;;6.30;99.90;;;;;;4992812;28;20458;-72
2022/10/09 01:31:47;;;;;;;3.90;2.37;;;6.40;99.90;;;;;;4992381;28;20404;-73
2022/10/09 01:34:15;;;;;;;3.07;2.50;;;6.30;99.90;;;;;;4992479;28;20460;-73
2022/10/09 01:36:42;;;;;;;4.17;3.00;;;6.30;99.90;;;;;;4992550;28;20530;-73
2022/10/09 01:39:11;;;;;;;5.90;3.00;;;6.30;99.90;;;;;;4992782;28;20522;-72
2022/10/09 01:41:37;;;;;;;5.93;3.67;;;6.20;99.90;;;;;;4991284;28;20416;-72
2022/10/09 01:44:13;;;;;;;4.80;3.60;;;6.20;99.90;;;;;;4994713;28;20432;-73
2022/10/09 01:46:38;;;;;;;5.10;4.00;;;6.10;99.90;;;;;;5001786;28;20512;-72
2022/10/09 01:49:13;;;;;;;8.33;3.80;;;6.10;99.90;;;;;;5000940;28;20427;-74
2022/10/09 01:52:13;;;;;;;7.17;4.60;;;6.10;99.90;;;;;;4999775;28;20191;-73
2022/10/09 01:55:15;;;;;;;4.80;3.30;;;6.00;99.90;;;;;;4999749;28;20899;-72
2022/10/09 01:57:47;;;;;;;10.77;3.53;;;6.00;99.90;;;;;;4999862;28;20435;-73
2022/10/09 02:00:13;;;;;;;3.57;3.00;;;6.00;99.90;;;;;;5000133;28;20420;-73
2022/10/09 02:02:40;;;;;;;10.10;4.17;;;6.00;99.90;;;;;;4993711;28;20412;-71
2022/10/09 02:05:12;;;;;;;6.93;3.57;;;6.00;99.90;;;;;;4992130;28;20478;-71
2022/10/09 02:07:38;;;;;;;5.70;3.83;;;5.90;99.90;;;;;;4992326;28;20581;-71
2022/10/09 02:10:05;;;;;;;7.07;4.30;;;5.90;99.90;;;;;;4992047;28;20436;-71
2022/10/09 02:12:37;;;;;;;10.80;3.60;;;5.90;99.90;;;;;;4992257;28;20177;-72
2022/10/09 02:15:03;;;;;;;4.93;4.10;;;5.90;99.90;;;;;;4993833;28;20459;-74
2022/10/09 02:17:32;;;;;;;4.60;3.80;;;5.90;99.90;;;;;;5000138;28;20420;-73
2022/10/09 02:20:04;;;;;;;4.63;4.23;;;6.00;99.90;;;;;;5000048;28;20443;-73
2022/10/09 02:22:31;;;;;;;4.57;2.30;;;6.00;99.90;;;;;;5000382;28;20423;-72
2022/10/09 02:25:00;;;;;;;6.60;2.97;;;6.00;99.90;;;;;;4991934;28;20416;-73
2022/10/09 02:27:26;;;;;;;3.87;3.10;;;6.00;99.90;;;;;;4990841;28;20535;-73
2022/10/09 02:29:52;;;;;;;4.00;2.97;;;6.00;99.90;;;;;;4996730;28;20431;-72
2022/10/09 02:32:19;;;;;;;4.20;3.07;;;5.90;99.90;;;;;;4999853;28;20423;-72
2022/10/09 02:34:45;;;;;;;7.80;4.00;;;5.90;99.90;;;;;;4999639;28;20460;-73
2022/10/09 02:37:10;;;;;;;6.63;4.30;;;5.90;99.90;;;;;;4998203;28;20527;-73
2022/10/09 02:39:36;;;;;;;2.93;2.53;;;5.90;99.90;;;;;;5002041;28;20459;-73
2022/10/09 02:42:02;;;;;;;6.70;4.30;;;5.90;99.90;;;;;;5000747;28;20195;-71
2022/10/09 02:44:28;;;;;;;4.53;3.80;;;5.90;99.90;;;;;;4995334;28;20229;-71
2022/10/09 02:46:54;;;;;;;6.03;3.83;;;5.90;99.90;;;;;;4995516;28;20953;-72
2022/10/09 02:49:20;;;;;;;4.17;3.60;;;5.80;99.90;;;;;;4995423;28;20225;-71
2022/10/09 02:51:46;;;;;;;9.60;4.30;;;5.70;99.90;;;;;;4995542;28;20172;-72
2022/10/09 02:54:12;;;;;;;10.70;4.80;;;5.70;99.90;;;;;;4995112;28;20468;-72
2022/10/09 02:56:39;;;;;;;4.37;3.57;;;5.70;99.90;;;;;;4995621;28;20213;-72
2022/10/09 02:59:05;;;;;;;6.07;3.30;;;5.70;99.90;;;;;;4995330;28;20495;-73
2022/10/09 03:01:31;;;;;;;4.00;3.40;;;5.60;99.90;;;;;;4995431;28;20599;-73
2022/10/09 03:03:56;;;;;;;8.60;2.80;;;5.60;99.90;;;;;;4994035;28;20514;-73
2022/10/09 03:06:24;;;;;;;8.67;3.47;;;5.60;99.90;;;;;;4993718;28;20643;-72
2022/10/09 03:08:51;;;;;;;6.17;3.10;;;5.50;99.90;;;;;;4995051;28;20173;-72
2022/10/09 03:11:18;;;;;;;8.00;4.10;;;5.50;99.90;;;;;;4994757;28;20808;-73
2022/10/09 03:13:44;;;;;;;5.13;3.10;;;5.40;99.90;;;;;;4997584;28;20447;-73
2022/10/09 03:16:13;;;;;;;5.23;3.60;;;5.50;99.90;;;;;;5002955;28;20412;-74
2022/10/09 03:18:39;;;;;;;5.47;3.30;;;5.50;99.90;;;;;;4996136;28;20833;-72
2022/10/09 03:21:06;;;;;;;3.70;3.40;;;5.60;99.90;;;;;;4993767;28;20924;-71
2022/10/09 03:23:32;;;;;;;9.63;4.80;;;5.60;99.90;;;;;;4994819;28;20422;-72
2022/10/09 03:25:59;;;;;;;5.73;3.80;;;5.60;99.90;;;;;;4994572;28;20423;-71
2022/10/09 03:28:25;;;;;;;6.80;4.10;;;5.50;99.90;;;;;;4994643;28;20212;-72
2022/10/09 03:30:51;;;;;;;4.70;3.67;;;5.50;99.90;;;;;;4994806;28;20412;-71
2022/10/09 03:33:17;;;;;;;5.47;4.20;;;5.40;99.90;;;;;;4994680;28;20806;-72
2022/10/09 03:35:45;;;;;;;8.00;3.83;;;5.40;99.90;;;;;;4994439;28;20424;-72
2022/10/09 03:38:10;;;;;;;5.00;4.33;;;5.40;99.90;;;;;;4997264;28;20220;-73
2022/10/09 03:40:36;;;;;;;4.90;3.90;;;5.40;99.90;;;;;;5001572;28;20424;-72
2022/10/09 03:43:01;;;;;;;6.30;3.90;;;5.40;99.90;;;;;;5000501;28;20180;-71
2022/10/09 03:45:27;;;;;;;4.70;3.37;;;5.30;99.90;;;;;;4994095;28;20693;-71
2022/10/09 03:47:52;;;;;;;3.37;2.83;;;5.40;99.90;;;;;;4994321;28;20200;-71
2022/10/09 03:50:18;;;;;;;5.33;2.93;;;5.40;99.90;;;;;;4993253;28;20192;-71
2022/10/09 03:52:43;;;;;;;4.20;3.13;;;5.40;99.90;;;;;;4994447;28;20548;-71
2022/10/09 03:55:09;;;;;;;3.70;3.30;;;5.40;99.90;;;;;;4993893;28;20662;-71
2022/10/09 03:57:34;;;;;;;6.03;2.40;;;5.30;99.90;;;;;;4994140;28;20193;-71
2022/10/09 04:00:00;;;;;;;5.13;2.70;;;5.20;99.90;;;;;;4994115;28;20168;-73
2022/10/09 04:02:25;;;;;;;4.23;3.30;;;5.20;99.90;;;;;;5002682;28;20176;-72
2022/10/09 04:04:51;;;;;;;3.63;2.77;;;5.20;99.90;;;;;;4993865;28;20176;-72
2022/10/09 04:07:16;;;;;;;7.30;4.27;;;5.10;99.90;;;;;;4993973;28;20192;-72
2022/10/09 04:09:42;;;;;;;3.80;3.23;;;5.10;99.90;;;;;;4993594;28;20187;-72
2022/10/09 04:12:08;;;;;;;6.27;4.13;;;5.10;99.90;;;;;;4994167;28;20169;-72
2022/10/09 04:14:33;;;;;;;3.77;2.70;;;5.10;99.90;;;;;;4998785;28;20200;-72
2022/10/09 04:16:59;;;;;;;5.00;3.93;;;5.00;99.90;;;;;;5002663;28;20188;-72
2022/10/09 04:19:24;;;;;;;4.93;3.60;;;5.10;99.90;;;;;;5004124;28;20251;-73
2022/10/09 04:21:50;;;;;;;6.10;3.77;;;5.10;99.90;;;;;;5004295;28;20411;-73
2022/10/09 04:24:16;;;;;;;6.40;3.93;;;5.10;99.90;;;;;;5004228;28;20252;-72
2022/10/09 04:26:41;;;;;;;7.90;4.40;;;5.10;99.90;;;;;;4996950;28;20192;-71
2022/10/09 04:29:07;;;;;;;9.13;4.37;;;5.00;99.90;;;;;;4993703;28;20173;-71
2022/10/09 04:31:32;;;;;;;5.67;4.70;;;5.00;99.90;;;;;;4993506;28;21048;-71
2022/10/09 04:33:58;;;;;;;4.70;4.27;;;5.00;99.90;;;;;;4993485;28;20212;-72
2022/10/09 04:36:23;;;;;;;4.27;3.37;;;5.00;99.90;;;;;;4991837;28;20525;-72
2022/10/09 04:38:51;;;;;;;5.50;3.83;;;5.00;99.90;;;;;;4993545;28;20173;-72
2022/10/09 04:41:17;;;;;;;12.53;4.47;;;5.10;99.90;;;;;;4993377;28;20193;-71
2022/10/09 04:43:42;;;;;;;8.27;4.87;;;5.00;99.90;;;;;;4993638;28;20439;-72
2022/10/09 04:46:11;;;;;;;4.90;4.00;;;5.10;99.90;;;;;;4992818;28;20280;-72
2022/10/09 04:48:41;;;;;;;5.23;3.77;;;5.20;99.90;;;;;;4991787;28;20181;-72
2022/10/09 04:51:08;;;;;;;10.93;4.87;;;5.10;99.90;;;;;;4993217;28;20418;-73
2022/10/09 04:53:34;;;;;;;16.07;9.63;;;5.10;99.90;;;;;;4993164;28;20414;-72
2022/10/09 04:56:02;;;;;;;6.20;5.17;;;5.10;99.90;;;;;;4992959;28;20969;-72
2022/10/09 04:58:29;;;;;;;5.73;4.40;;;5.10;99.90;;;;;;4993080;28;20436;-73
2022/10/09 05:00:54;;;;;;;4.43;3.37;;;5.10;99.90;;;;;;4992999;28;20503;-72
2022/10/09 05:03:19;;;;;;;7.37;5.17;;;5.00;99.90;;;;;;4993186;28;20500;-73
2022/10/09 05:05:45;;;;;;;6.00;4.53;;;5.00;99.90;;;;;;4992827;28;20180;-73
2022/10/09 05:08:11;;;;;;;6.67;4.23;;;5.00;99.90;;;;;;4992957;28;20216;-72
2022/10/09 05:10:36;;;;;;;4.93;3.63;;;4.90;99.90;;;;;;4992984;28;20231;-72
2022/10/09 05:13:02;;;;;;;6.27;4.43;;;4.90;99.90;;;;;;4992936;28;20521;-71
2022/10/09 05:15:28;;;;;;;5.60;3.93;;;4.90;99.90;;;;;;4992460;28;20200;-71
2022/10/09 05:17:53;;;;;;;6.00;4.30;;;4.80;99.90;;;;;;4992764;28;20607;-73
2022/10/09 05:20:19;;;;;;;6.33;5.10;;;4.80;99.90;;;;;;4992955;28;20215;-72
2022/10/09 05:22:45;;;;;;;7.07;5.10;;;4.80;99.90;;;;;;4992823;28;20653;-72
2022/10/09 05:25:11;;;;;;;13.10;5.97;;;4.90;99.90;;;;;;4992540;28;20188;-72
2022/10/09 05:27:36;;;;;;;4.87;4.30;;;4.90;99.90;;;;;;4997232;28;20435;-73
2022/10/09 05:30:03;;;;;;;6.97;4.50;;;4.90;99.90;;;;;;5002328;28;20177;-73
2022/10/09 05:32:29;;;;;;;9.03;4.20;;;4.90;99.90;;;;;;5002817;28;20177;-73
2022/10/09 05:34:54;;;;;;;5.27;3.73;;;4.80;99.90;;;;;;4998015;28;20819;-73
2022/10/09 05:37:20;;;;;;;5.53;4.80;;;4.80;99.90;;;;;;4992539;28;20614;-73
2022/10/09 05:39:45;;;;;;;13.40;7.53;;;4.80;99.90;;;;;;4992721;28;20173;-72
2022/10/09 05:42:11;;;;;;;19.47;11.60;;;4.70;99.90;;;;;;4997586;28;20263;-73
2022/10/09 05:44:36;;;;;;;12.90;8.53;;;4.70;99.90;;;;;;4999293;28;20172;-72
2022/10/09 05:47:02;;;;;;;5.93;3.90;;;4.70;99.90;;;;;;4992562;28;20204;-72
2022/10/09 05:49:28;;;;;;;6.20;5.07;;;4.70;99.90;;;;;;4992548;28;20606;-73
2022/10/09 05:51:54;;;;;;;7.30;3.90;;;4.70;99.90;;;;;;4992637;28;20200;-72
2022/10/09 05:54:20;;;;;;;4.43;4.00;;;4.80;99.90;;;;;;4992249;28;20560;-72
2022/10/09 05:56:46;;;;;;;5.67;4.30;;;4.80;99.90;;;;;;4992393;28;20428;-72
2022/10/09 05:59:18;;;;;;;4.93;4.07;;;4.90;99.90;;;;;;4996411;28;20204;-73
2022/10/09 06:01:47;;;;;;;9.63;4.60;;;5.00;99.90;;;;;;5002762;28;20443;-73
2022/10/09 06:04:19;;;;;;;6.10;5.00;;;5.00;99.90;;;;;;5000369;28;20499;-71
2022/10/09 06:06:47;;;;;;;6.10;4.50;;;4.90;99.90;;;;;;4992302;28;20432;-72
2022/10/09 06:09:18;;;;;;;11.03;4.20;;;5.00;99.90;;;;;;4993338;28;20426;-73
2022/10/09 06:11:44;;;;;;;6.70;3.87;;;5.10;99.90;;;;;;5001506;28;20422;-73
2022/10/09 06:14:12;;;;;;;7.23;4.93;;;5.00;99.90;;;;;;5005632;28;20487;-72
2022/10/09 06:16:40;;;;;;;6.30;4.97;;;5.10;99.90;;;;;;4999778;28;20423;-72
2022/10/09 06:19:06;;;;;;;6.77;5.13;;;5.10;99.90;;;;;;4994918;28;20415;-72
2022/10/09 06:21:33;;;;;;;6.77;4.30;;;5.20;99.90;;;;;;4996228;28;20419;-71
2022/10/09 06:23:59;;;;;;;10.40;7.70;;;5.20;99.90;;;;;;5002292;28;20931;-74
2022/10/09 06:26:29;;;;;;;11.63;6.70;;;5.40;99.90;;;;;;4999486;28;20416;-72
2022/10/09 06:28:59;;;;;;;8.80;4.20;;;5.40;99.90;;;;;;4995955;28;20435;-72
2022/10/09 06:31:28;;;;;;;5.37;3.73;;;5.50;99.90;;;;;;4994590;28;20416;-72
2022/10/09 06:33:54;;;;;;;8.90;4.60;;;5.50;99.90;;;;;;4994481;28;20490;-72
2022/10/09 06:36:26;;;;;;;10.83;5.17;;;5.60;99.90;;;;;;4994290;28;20408;-73
2022/10/09 06:38:52;;;;;;;13.03;4.93;;;5.70;99.90;;;;;;4995853;28;20404;-72
2022/10/09 06:41:24;;;;;;;7.80;4.27;;;5.70;99.90;;;;;;5003062;28;20507;-72
2022/10/09 06:43:50;;;;;;;14.50;4.50;;;5.80;99.90;;;;;;4994431;28;20411;-73
2022/10/09 06:46:17;;;;;;;9.00;4.17;;;5.90;99.90;;;;;;4995216;28;20443;-72
2022/10/09 06:48:42;;;;;;;8.03;4.70;;;5.90;99.90;;;;;;4995472;28;20415;-72
2022/10/09 06:51:11;;;;;;;6.90;5.20;;;6.00;99.90;;;;;;4995578;28;20916;-71
2022/10/09 06:53:39;;;;;;;5.90;4.90;;;6.00;99.90;;;;;;5000908;28;20169;-73
2022/10/09 06:56:05;;;;;;;6.23;4.87;;;6.10;99.90;;;;;;5005761;28;20447;-73
2022/10/09 06:58:31;;;;;;;11.30;4.60;;;6.10;99.90;;;;;;5005186;28;20498;-73
2022/10/09 07:01:05;;;;;;;8.73;5.33;;;6.20;99.90;;;;;;5004495;28;20519;-73
2022/10/09 07:03:32;;;;;;;6.27;4.60;;;6.30;99.90;;;;;;4997917;28;20168;-72
2022/10/09 07:06:18;;;;;;;9.23;5.30;;;6.30;99.90;;;;;;4995024;28;20400;-72
2022/10/09 07:08:47;;;;;;;10.30;4.80;;;6.40;99.90;;;;;;4995341;28;20403;-73
2022/10/09 07:11:20;;;;;;;9.73;5.97;;;6.50;99.90;;;;;;4995705;28;20412;-73
2022/10/09 07:13:47;;;;;;;4.60;3.90;;;6.50;99.90;;;;;;5004899;28;20460;-73
2022/10/09 07:16:16;;;;;;;8.30;4.50;;;6.60;99.90;;;;;;4994693;28;20829;-73
2022/10/09 07:18:42;;;;;;;9.80;4.70;;;6.70;99.90;;;;;;4994975;28;20411;-73
2022/10/09 07:21:08;;;;;;;8.83;5.07;;;6.70;99.90;;;;;;4995131;28;20401;-72
2022/10/09 07:23:35;;;;;;;6.10;4.80;;;6.80;99.90;;;;;;4995102;28;20198;-72
2022/10/09 07:26:06;;;;;;;6.37;4.77;;;6.90;99.90;;;;;;4994887;28;20404;-73
2022/10/09 07:28:32;;;;;;;6.57;5.30;;;7.00;99.90;;;;;;4994945;28;20458;-72
2022/10/09 07:31:02;;;;;;;8.50;6.17;;;7.10;99.90;;;;;;4993597;28;20930;-72
2022/10/09 07:33:28;;;;;;;8.13;5.90;;;7.20;99.90;;;;;;4994533;28;20173;-72
2022/10/09 07:35:55;;;;;;;8.87;6.00;;;7.30;99.90;;;;;;4993236;28;20417;-72
2022/10/09 07:38:23;;;;;;;5.27;4.53;;;7.40;99.90;;;;;;4993252;28;20347;-73
2022/10/09 07:40:49;;;;;;;9.93;5.70;;;7.50;99.90;;;;;;4994695;28;20411;-72
2022/10/09 07:43:15;;;;;;;6.53;4.70;;;7.60;99.90;;;;;;4994659;28;20416;-72
2022/10/09 07:45:40;;;;;;;6.90;5.33;;;7.60;99.90;;;;;;4994398;28;20471;-71
2022/10/09 07:48:06;;;;;;;8.37;5.37;;;7.70;99.90;;;;;;4994583;28;20570;-72
2022/10/09 07:50:31;;;;;;;9.83;5.13;;;7.90;99.90;;;;;;4994373;28;20189;-73
2022/10/09 07:52:57;;;;;;;7.87;4.40;;;8.00;99.90;;;;;;4994492;28;20169;-73
2022/10/09 07:55:22;;;;;;;9.93;5.83;;;8.10;99.90;;;;;;4998578;28;20215;-73
2022/10/09 07:57:49;;;;;;;10.10;5.50;;;8.30;99.90;;;;;;4998708;28;20276;-73
2022/10/09 08:00:15;;;;;;;6.50;5.40;;;8.40;99.90;;;;;;4998802;28;20227;-73
2022/10/09 08:02:40;;;;;;;11.70;5.33;;;8.70;99.90;;;;;;4997421;28;20420;-74
2022/10/09 08:05:06;;;;;;;6.83;6.10;;;8.90;99.90;;;;;;4996120;28;20185;-73
2022/10/09 08:07:32;;;;;;;6.00;5.20;;;9.10;99.90;;;;;;4997711;28;20197;-73
2022/10/09 08:09:57;;;;;;;11.90;4.60;;;9.30;99.90;;;;;;4998284;28;20185;-73
2022/10/09 08:12:23;;;;;;;10.50;4.37;;;9.70;99.90;;;;;;4997026;28;20188;-74
2022/10/09 08:14:48;;;;;;;7.17;4.67;;;10.40;99.90;;;;;;4996700;28;20624;-73
2022/10/09 08:17:15;;;;;;;7.53;4.27;;;11.60;99.90;;;;;;4998089;28;20201;-73
2022/10/09 08:19:40;;;;;;;5.00;4.30;;;13.00;99.90;;;;;;4999368;28;20176;-75
2022/10/09 08:22:06;;;;;;;5.80;3.67;;;14.40;99.90;;;;;;4999403;28;20420;-74
2022/10/09 08:24:31;;;;;;;10.00;4.97;;;15.70;99.90;;;;;;4992546;28;20188;-72
2022/10/09 08:26:57;;;;;;;6.37;3.93;;;16.90;99.90;;;;;;4993808;28;20192;-73
2022/10/09 08:29:22;;;;;;;4.40;4.00;;;17.70;99.90;;;;;;4993670;28;20188;-73
2022/10/09 08:31:48;;;;;;;4.70;3.60;;;18.70;99.90;;;;;;4993794;28;20181;-74
2022/10/09 08:34:13;;;;;;;4.90;4.40;;;20.10;99.90;;;;;;4993456;28;20599;-73
2022/10/09 08:36:39;;;;;;;6.70;3.10;;;21.10;89.10;;;;;;4993188;28;20189;-73
2022/10/09 08:39:05;;;;;;;6.40;3.77;;;22.00;79.20;;;;;;4993618;28;20192;-74
2022/10/09 08:41:40;;;;;;;5.47;3.63;;;22.20;71.60;;;;;;4993614;28;20169;-75
2022/10/09 08:44:17;;;;;;;6.00;3.77;;;22.60;67.30;;;;;;4993266;28;20167;-73
2022/10/09 08:46:45;;;;;;;3.47;3.17;;;23.10;65.10;;;;;;4993312;28;20792;-74
2022/10/09 08:49:40;;;;;;;4.07;3.27;;;23.40;63.70;;;;;;4993233;28;20428;-74
2022/10/09 08:52:25;;;;;;;4.50;3.73;;;23.60;62.20;;;;;;4993313;28;20742;-74
2022/10/09 08:54:54;;;;;;;6.00;3.40;;;24.00;58.90;;;;;;4993009;28;20456;-74
2022/10/09 08:57:21;;;;;;;3.97;3.30;;;23.50;58.40;;;;;;4992990;28;20470;-74
2022/10/09 08:59:47;;;;;;;4.90;3.50;;;22.90;57.90;;;;;;4993173;28;20400;-75
2022/10/09 09:02:36;;;;;;;2.77;2.20;;;22.50;59.50;;;;;;4993223;28;20431;-75
2022/10/09 09:05:37;;;;;;;3.40;3.10;;;23.30;65.40;;;;;;4992868;28;20533;-75
2022/10/09 09:08:21;;;;;;;3.30;2.70;;;24.00;59.70;;;;;;4993023;28;20467;-73
2022/10/09 09:10:58;;;;;;;5.30;3.20;;;24.90;58.50;;;;;;4993108;28;20532;-73
2022/10/09 09:13:48;;;;;;;3.13;2.70;;;26.40;57.20;;;;;;4992889;28;20412;-73
2022/10/09 09:16:55;;;;;;;5.23;3.20;;;27.00;53.20;;;;;;4992638;28;20385;-72
2022/10/09 09:19:50;;;;;;;2.43;2.20;;;27.00;51.50;;;;;;4991499;28;20408;-72
2022/10/09 09:22:16;;;;;;;3.27;2.40;;;28.00;50.20;;;;;;4992931;28;20450;-73
2022/10/09 09:24:51;;;;;;;3.13;2.70;;;28.00;49.60;;;;;;4992249;28;20494;-73
2022/10/09 09:27:29;;;;;;;5.63;3.07;;;28.50;49.20;;;;;;4992707;28;20423;-73
2022/10/09 09:30:04;;;;;;;2.90;2.70;;;29.00;47.60;;;;;;4992794;28;20424;-73
2022/10/09 09:32:31;;;;;;;5.07;3.30;;;29.40;46.90;;;;;;4992800;28;20404;-73
2022/10/09 09:35:20;;;;;;;4.47;2.70;;;30.50;45.60;;;;;;4991116;28;20546;-72
2022/10/09 09:37:46;;;;;;;5.40;2.57;;;30.60;43.60;;;;;;4992621;28;20420;-71
2022/10/09 09:40:15;;;;;;;2.23;2.03;;;30.70;43.50;;;;;;4992706;28;20404;-72
2022/10/09 09:42:42;;;;;;;6.73;3.03;;;30.70;42.20;;;;;;4992703;28;20650;-71
2022/10/09 09:45:17;;;;;;;3.10;2.77;;;30.10;42.10;;;;;;4992456;28;20412;-73
2022/10/09 09:47:50;;;;;;;8.03;2.73;;;29.80;42.60;;;;;;4993700;28;20423;-73
2022/10/09 09:50:30;;;;;;;3.97;2.67;;;29.80;43.00;;;;;;4997234;28;20460;-73
2022/10/09 09:52:59;;;;;;;2.50;2.30;;;29.30;42.20;;;;;;4997135;28;20407;-72
2022/10/09 09:55:29;;;;;;;3.17;2.70;;;29.00;42.70;;;;;;4996595;28;20980;-72
2022/10/09 09:58:06;;;;;;;3.20;2.27;;;29.60;44.00;;;;;;4997169;28;20427;-75
2022/10/09 10:00:32;;;;;;;4.33;2.90;;;30.60;43.10;;;;;;4995790;28;20404;-73
2022/10/09 10:03:13;;;;;;;4.47;2.20;;;30.20;40.90;;;;;;4997231;28;20897;-73
2022/10/09 10:05:40;;;;;;;5.33;2.20;;;29.90;40.80;;;;;;4996718;28;20502;-72
2022/10/09 10:08:24;;;;;;;3.73;2.50;;;29.90;41.40;;;;;;4996448;28;20487;-72
2022/10/09 10:10:52;;;;;;;2.43;2.13;;;30.00;41.70;;;;;;4996322;28;20814;-72
2022/10/09 10:13:21;;;;;;;2.80;2.40;;;30.20;41.80;;;;;;4995954;28;20400;-72
2022/10/09 10:15:53;;;;;;;3.30;2.20;;;30.20;41.50;;;;;;4995821;28;21021;-72
2022/10/09 10:18:21;;;;;;;3.37;3.13;;;29.90;41.30;;;;;;4994818;28;20519;-72
2022/10/09 10:20:55;;;;;;;2.30;2.10;;;30.00;42.00;;;;;;4994920;28;20443;-73
2022/10/09 10:23:40;;;;;;;2.90;2.10;;;29.70;41.20;;;;;;4996142;28;20517;-73
2022/10/09 10:26:20;;;;;;;2.33;1.80;;;29.40;41.40;;;;;;4995761;28;20747;-74
2022/10/09 10:28:53;;;;;;;5.60;2.50;;;29.30;41.70;;;;;;4995953;28;20400;-72
2022/10/09 10:31:44;;;;;;;2.93;2.07;;;29.70;41.60;;;;;;4995941;28;20402;-72
2022/10/09 10:34:18;;;;;;;2.10;1.90;;;30.40;41.80;;;;;;4995674;28;20455;-71
2022/10/09 10:36:56;;;;;;;4.83;2.20;;;30.70;41.20;;;;;;4995834;28;20407;-73
2022/10/09 10:39:30;;;;;;;2.43;2.23;;;31.30;40.80;;;;;;4995869;28;20416;-72
2022/10/09 10:42:01;;;;;;;6.60;2.83;;;31.80;40.20;;;;;;4995715;28;20487;-72
2022/10/09 10:45:02;;;;;;;3.83;2.63;;;32.20;39.90;;;;;;4995395;28;20479;-72
2022/10/09 10:47:33;;;;;;;3.53;2.40;;;32.10;39.10;;;;;;4995652;28;20419;-72
2022/10/09 10:49:59;;;;;;;2.03;1.70;;;32.50;39.30;;;;;;4995944;28;20432;-75
2022/10/09 10:52:54;;;;;;;3.33;3.00;;;32.50;38.70;;;;;;4994607;28;20408;-75
2022/10/09 10:55:45;;;;;;;4.53;2.30;;;32.60;39.00;;;;;;4995551;28;20544;-72
2022/10/09 10:58:17;;;;;;;2.97;2.00;;;32.60;38.10;;;;;;4994059;28;20981;-73
2022/10/09 11:00:52;;;;;;;1.80;1.70;;;32.50;38.50;;;;;;4995770;28;20435;-73
2022/10/09 11:03:40;;;;;;;3.57;2.23;;;33.00;38.10;;;;;;4994422;28;20434;-71
2022/10/09 11:06:28;;;;;;;2.43;2.07;;;33.00;37.30;;;;;;4995282;28;20404;-72
2022/10/09 11:09:12;;;;;;;3.30;1.63;;;33.00;38.30;;;;;;4994425;28;20487;-73
2022/10/09 11:12:05;;;;;;;3.83;1.83;;;33.60;37.20;;;;;;4994184;28;20423;-73
2022/10/09 11:15:18;;;;;;;6.47;2.20;;;33.30;37.20;;;;;;4995192;28;20460;-72
2022/10/09 11:18:02;;;;;;;4.37;2.43;;;33.00;36.30;;;;;;4994761;28;20479;-72
2022/10/09 11:20:46;;;;;;;2.47;2.27;;;32.60;36.70;;;;;;4995417;28;20496;-71
2022/10/09 11:23:27;;;;;;;3.27;2.00;;;32.70;37.70;;;;;;4995051;28;20403;-71
2022/10/09 11:26:07;;;;;;;3.53;1.60;;;32.90;37.10;;;;;;4994630;28;20415;-71
2022/10/09 11:28:41;;;;;;;2.20;1.63;;;32.70;37.10;;;;;;4994848;28;20403;-70
2022/10/09 11:31:18;;;;;;;2.67;1.70;;;32.90;37.10;;;;;;4994892;28;20490;-71
2022/10/09 11:33:49;;;;;;;2.10;1.90;;;33.20;36.70;;;;;;4994636;28;20400;-71
2022/10/09 11:36:26;;;;;;;3.13;1.67;;;33.70;36.70;;;;;;4994409;28;20411;-70
2022/10/09 11:38:59;;;;;;;4.67;1.63;;;33.30;35.40;;;;;;4994593;28;20411;-71
2022/10/09 11:41:27;;;;;;;7.80;1.97;;;33.20;35.50;;;;;;4994626;28;20400;-71
2022/10/09 11:44:06;;;;;;;3.10;1.30;;;33.20;35.70;;;;;;4994562;28;20412;-72
2022/10/09 11:46:58;;;;;;;3.23;2.03;;;33.10;36.10;;;;;;4994339;28;20856;-71
2022/10/09 11:49:27;;;;;;;2.90;1.53;;;33.10;34.90;;;;;;4994461;28;20775;-72
2022/10/09 11:52:01;;;;;;;2.73;1.63;;;32.50;34.20;;;;;;4993190;28;20451;-71
2022/10/09 11:54:27;;;;;;;1.83;1.40;;;32.20;34.50;;;;;;4994140;28;20841;-71
2022/10/09 11:56:58;;;;;;;1.57;1.33;;;31.80;34.90;;;;;;4994347;28;20791;-73
2022/10/09 11:59:29;;;;;;;2.73;1.90;;;31.90;36.20;;;;;;4994325;28;20463;-73
2022/10/09 12:02:00;;;;;;;1.90;1.40;;;32.70;36.10;;;;;;4994363;28;20885;-71
2022/10/09 12:04:31;;;;;;;4.50;2.07;;;33.20;35.70;;;;;;4994047;28;20416;-71
2022/10/09 12:07:02;;;;;;;3.23;1.50;;;33.20;34.60;;;;;;4994110;28;20427;-72
2022/10/09 12:09:36;;;;;;;4.13;2.33;;;33.10;33.80;;;;;;4994090;28;20777;-71
2022/10/09 12:12:20;;;;;;;2.97;1.67;;;32.70;34.00;;;;;;4993215;28;20442;-71
2022/10/09 12:14:48;;;;;;;1.57;1.17;;;32.30;35.00;;;;;;4992457;28;20850;-71
2022/10/09 12:17:34;;;;;;;1.37;1.10;;;32.00;35.00;;;;;;4993941;28;20427;-71
2022/10/09 12:20:19;;;;;;;2.00;1.60;;;32.70;35.00;;;;;;4992691;28;20439;-71
2022/10/09 12:22:50;;;;;;;2.33;1.70;;;32.90;34.50;;;;;;4993783;28;20802;-70
2022/10/09 12:25:29;;;;;;;2.13;1.50;;;32.90;34.10;;;;;;4993430;28;20901;-71
2022/10/09 12:27:57;;;;;;;2.00;1.33;;;32.70;34.80;;;;;;4993789;28;20439;-71
2022/10/09 12:30:30;;;;;;;3.70;1.90;;;33.10;34.20;;;;;;4993653;28;20416;-71
2022/10/09 12:33:14;;;;;;;3.30;1.50;;;32.10;32.50;;;;;;4993681;28;20420;-71
2022/10/09 12:35:45;;;;;;;3.83;1.33;;;31.40;32.80;;;;;;4993252;28;20455;-70
2022/10/09 12:38:23;;;;;;;5.00;1.70;;;30.90;33.30;;;;;;4993591;28;20910;-71
2022/10/09 12:40:50;;;;;;;3.60;1.83;;;30.20;33.40;;;;;;4993515;28;20419;-71
2022/10/09 12:43:19;;;;;;;2.37;1.00;;;29.60;35.00;;;;;;4993452;28;20419;-72
2022/10/09 12:45:47;;;;;;;1.33;1.10;;;29.50;35.40;;;;;;4993167;28;20414;-72
2022/10/09 12:48:17;;;;;;;1.70;1.10;;;29.60;35.60;;;;;;4993311;28;20432;-71
2022/10/09 12:50:42;;;;;;;4.60;1.50;;;30.00;36.30;;;;;;4993324;28;20518;-71
2022/10/09 12:53:17;;;;;;;2.00;1.20;;;30.10;35.50;;;;;;4993364;28;20511;-71
2022/10/09 12:55:49;;;;;;;4.73;1.93;;;30.40;35.70;;;;;;4992864;28;20283;-72
2022/10/09 12:58:17;;;;;;;1.80;1.20;;;30.60;35.20;;;;;;4993200;28;20511;-72
2022/10/09 13:00:46;;;;;;;1.70;1.30;;;30.70;35.50;;;;;;4993164;28;20411;-74
2022/10/09 13:03:22;;;;;;;3.30;1.67;;;30.80;34.70;;;;;;4993275;28;20446;-71
2022/10/09 13:05:48;;;;;;;1.63;1.10;;;30.90;35.00;;;;;;4992882;28;20416;-71
2022/10/09 13:08:33;;;;;;;4.40;1.40;;;30.80;35.20;;;;;;4992913;28;20428;-72
2022/10/09 13:11:28;;;;;;;2.27;1.40;;;30.80;35.70;;;;;;4993232;28;20184;-72